• Join FlightAware (Why Join?)
  • Login
  • US Flag 
02:23AM EDT


 

Airport Tracker/Info


-or-


 

Live Flight TrackerFlight Track Log ✈ DAL6231 ✈ 10-Nov-2013 ✈ KLGA - KCHO

Flight Track Log - Related Links

Times and Time Zones

All times are in EST time to prevent confusion due to time zone crossing. See the DAL6231 flight status page for this flight to view local times or setup timezone preferences in your user account.

Time Position Orientation Groundspeed Altitude Reporting Facility
EST Latitude Longitude Course Direction KTS MPH feet Rate Location/Type
11:20AM 40.8167 -73.9000 229° Southwest 187 215 2,700  Level New York TRACON
11:21AM 40.8833 -73.9500 330° Northwest 242 278 5,900 3,000 Climbing New York TRACON
11:22AM 40.9167 -74.0167 304° West 258 297 8,800 3,420 Climbing New York TRACON
11:23AM 40.8667 -74.0833 225° Southwest 250 288 12,400 2,880 Climbing New York TRACON
11:24AM 40.8333 -74.1667 242° Southwest 287 330 14,600 1,200 Climbing New York TRACON
11:26AM 40.4688 -74.4436 229° Southwest  Level Estimated
11:27AM 40.7272 -74.3803 237° Southwest 319 367 16,300  Level New York Center
11:27AM 40.6786 -74.4733 235° Southwest 331 381 17,000 960 Climbing New York Center
11:28AM 40.6275 -74.5744 236° Southwest 344 396 18,300 1,800 Climbing New York Center
11:29AM 40.5675 -74.6833 234° Southwest 338 389 20,700 2,160 Climbing New York Center
11:30AM 40.5081 -74.7781 230° Southwest 338 389 22,600 1,800 Climbing New York Center
11:31AM 40.4467 -74.8700 229° Southwest 338 389 24,400 1,680 Climbing New York Center
11:32AM 40.3850 -74.9644 229° Southwest 343 395 26,000 1,260 Climbing New York Center
11:33AM 40.3231 -75.0614 230° Southwest 343 395 27,000 540 Climbing New York Center
11:34AM 40.2547 -75.1658 229° Southwest 357 411 27,100 720 Climbing New York Center
11:35AM 40.1883 -75.2703 230° Southwest 370 426 28,500 1,260 Climbing New York Center
11:36AM 40.1283 -75.3642 230° Southwest 380 437 29,700 720 Climbing New York Center
11:37AM 40.0594 -75.4681 229° Southwest 385 443 30,000 120 Climbing New York Center
11:38AM 39.9886 -75.5719 228° Southwest 385 443 30,000 -360 Level New York Center
11:39AM 39.9197 -75.6753 229° Southwest 385 443 29,400 -1,020 Descending New York Center
11:40AM 39.8528 -75.7789 230° Southwest 390 449 28,000 -1,440 Descending New York Center
11:41AM 39.7878 -75.8850 231° Southwest 390 449 26,600 -1,440 Descending New York Center
11:42AM 39.7208 -75.9881 230° Southwest 385 443 25,200 -1,440 Descending New York Center
11:43AM 39.6578 -76.0939 232° Southwest 385 443 23,800 -960 Descending New York Center
11:46AM 39.4861 -76.3525 229° Southwest 387 445 22,000 -540 Descending Washington Center
11:47AM 39.4189 -76.4567 230° Southwest 381 438 22,000  Level Washington Center
11:48AM 39.3514 -76.5631 231° Southwest 381 438 22,000  Level Washington Center
11:49AM 39.2833 -76.6667 230° Southwest 377 434 22,000  Level Potomac TRACON
11:50AM 39.2167 -76.7667 229° Southwest 372 428 22,000  Level Potomac TRACON
11:51AM 39.1500 -76.8833 234° Southwest 374 430 22,000 -60 Level Potomac TRACON
11:52AM 39.0833 -76.9833 229° Southwest 377 434 21,900 -480 Descending Potomac TRACON
11:53AM 39.0000 -77.0833 223° Southwest 390 449 21,100 -1,200 Descending Potomac TRACON
11:54AM 38.9333 -77.1667 224° Southwest 398 458 19,500 -1,680 Descending Potomac TRACON
11:55AM 38.8500 -77.2667 223° Southwest 376 433 17,800 -1,680 Descending Potomac TRACON
11:56AM 38.7833 -77.3333 218° Southwest 366 421 16,400 -1,620 Descending Potomac TRACON
11:57AM 38.7000 -77.4333 223° Southwest 339 390 14,600 -1,680 Descending Potomac TRACON
11:58AM 38.6500 -77.5333 237° Southwest 339 390 12,900 -1,560 Descending Potomac TRACON
11:59AM 38.6000 -77.6167 233° Southwest 307 353 11,700 -1,320 Descending Potomac TRACON
12:00PM 38.5500 -77.7000 233° Southwest 246 283 10,400 -1,440 Descending Potomac TRACON
12:01PM 38.5167 -77.7833 243° Southwest 247 284 8,800 -1,200 Descending Potomac TRACON
12:02PM 38.4833 -77.8500 237° Southwest 250 288 8,000 -480 Descending Potomac TRACON
12:03PM 38.4333 -77.9167 226° Southwest 250 288 7,900 -60 Descending Potomac TRACON
12:04PM 38.4000 -77.9833 237° Southwest 242 278 7,900  Level Potomac TRACON
12:05PM 38.3667 -78.0500 237° Southwest 241 277 8,000 -780 Climbing Potomac TRACON
12:06PM 38.3333 -78.1167 238° Southwest 232 267 6,400 -1,560 Descending Potomac TRACON
12:07PM 38.3000 -78.1833 238° Southwest 223 257 4,900 -1,440 Descending Potomac TRACON
12:08PM 38.2667 -78.2667 243° Southwest 227 261 3,600 -1,020 Descending Potomac TRACON
12:09PM 38.2500 -78.3333 252° West 215 247 3,000 -420 Descending Potomac TRACON
12:10PM 38.2333 -78.4000 252° West 197 227 2,900 -660 Descending Potomac TRACON
12:11PM 38.1833 -78.4333 208° Southwest 165 190 1,700 -1,080 Descending Potomac TRACON
12:12PM 38.1500 -78.4500 201° Southwest 137 158 800 -540 Descending Potomac TRACON
12:13PM 38.1167 -78.4667 201° Southwest 134 154 700 -120 Descending Potomac TRACON
12:15PM 38.1333 -78.4500 38° Northeast  Level FlightAware Approximate
12:22PM 38.1396 -78.4523 38° Northeast  Level Estimated
12:23PM 38.1333 -78.4500 38° Northeast  Level FlightAware Approximate
12:24PM 38.1396 -78.4523 38° Northeast  Level Estimated
12:25PM 38.1333 -78.4500 38° Northeast  Level FlightAware Approximate
12:26PM 38.1396 -78.4523 38° Northeast  Level Estimated
12:27PM 38.1333 -78.4500 38° Northeast  Level FlightAware Approximate
12:28PM 38.1396 -78.4523 38° Northeast  Level Estimated
12:29PM 38.1333 -78.4500 38° Northeast  Level FlightAware Approximate